Nearby METAR Reports

 

KSJC - San Jose, California, USA
Distance from station: NE 14km
Updated: 18/09/2018 10:53
Few Clouds
Few Clouds
 Wind from calm
Wind: Calm
Temperature: 18°C
Dew Point: 10°C
Humidity: 60%
Barometer: 1015.2 hPa
Clouds: Few Clouds
Visibility: 16 km
Cloud details: Few Clouds 518 m
2018/09/18 17:53 KSJC 181753Z 00000KT 10SM FEW017 18/10 A2998 RMK AO2 SLP151 T01780100 10183 20094 58001
KNUQ - Moffett Nas/Mtn, California, USA
Distance from station: N 14km
Updated: 18/09/2018 10:56
Clear
Clear
 Wind from varies
Wind: varies 6 km/h
Temperature: 19°C
Dew Point: 11°C
Humidity: 60%
Barometer: 1015.2 hPa
Clouds: Clear
Visibility: 16 km
2018/09/18 17:56 KNUQ 181756Z VRB03KT 10SM CLR 19/11 A2998 RMK AO2 SLP155 T01890106 10189 20106 58003 $
 
KPAO - Palo Alto, California, USA
Distance from station: NNW 23km
Updated: 18/09/2018 10:47
Few Clouds
Few Clouds
 Wind from varies
Wind: varies 11 km/h
Temperature: 18°C
Dew Point: 12°C
Humidity: 68%
Barometer: 1015.6 hPa
Clouds: Few Clouds
Visibility: 16 km
Cloud details: Few Clouds 610 m
2018/09/18 17:47 KPAO 181747Z VRB06KT 10SM FEW020 18/12 A2999
KRHV - San Jose/Reid, California, USA
Distance from station: ENE 19km
Updated: 18/09/2018 10:47
Clear
Clear
 Wind from varies
Wind: varies 9 km/h
Temperature: 20°C
Dew Point: 10°C
Humidity: 53%
Barometer: 1014.6 hPa
Clouds: Clear
Visibility: 16 km
2018/09/18 17:47 KRHV 181747Z VRB05KT 10SM SKC 20/10 A2996
 
KOAK - Oakland, California, USA
Distance from station: NNW 50km
Updated: 18/09/2018 10:53
Overcast
Overcast
 Wind from varies
Wind: varies 6 km/h
Temperature: 15°C
Dew Point: 11°C
Humidity: 77%
Barometer: 1015.6 hPa
Clouds: Overcast
Visibility: 16 km
Cloud details: Overcast 457 m
2018/09/18 17:53 KOAK 181753Z VRB03KT 10SM OVC015 15/11 A2999 RMK AO2 SLP155 T01500111 10156 20139 51002
KSQL - San Carlos Airpo, California, USA
Distance from station: NW 34km
Updated: 18/09/2018 10:50
Few Clouds
Few Clouds
 Wind from NNE
Wind: NNE 9 km/h
Temperature: 17°C
Dew Point: 11°C
Humidity: 68%
Barometer: 1015.2 hPa
Clouds: Few Clouds
Visibility: 16 km
Cloud details: Few Clouds 457 m
2018/09/18 17:50 KSQL 181750Z 03005KT 10SM FEW015 17/11 A2998
 
KSFO - San Francisco, California, USA
Distance from station: NW 49km
Updated: 18/09/2018 10:56
Partly cloudy
Partly cloudy
 Wind from varies
Wind: varies 11 km/h
Temperature: 17°C
Dew Point: 11°C
Humidity: 68%
Barometer: 1014.9 hPa
Clouds: Partly cloudy
Visibility: 16 km
Cloud details: Few Clouds 274 m
Partly cloudy 518 m
2018/09/18 17:56 KSFO 181756Z VRB06KT 10SM FEW009 SCT017 17/11 A2997 RMK AO2 SLP150 T01720106 10178 20128 50000
KE16 - San Martin, California, USA
Distance from station: ESE 43km
Updated: 18/09/2018 11:10
Clear
Clear
 Wind from ESE
Wind: ESE 7 km/h
Temperature: 17°C
Dew Point: 10°C
Humidity: 64%
Barometer: 1015.6 hPa
Clouds: Clear
Visibility: 16 km
2018/09/18 18:10 KE16 181810Z AUTO 12004KT 10SM CLR 17/10 A2999 RMK AO2
 
KWVI - Watsonville, California, USA
Distance from station: SSE 44km
Updated: 18/09/2018 10:53
Overcast
Overcast
 Wind from varies
Wind: varies 6 km/h
Temperature: 16°C
Dew Point: 11°C
Humidity: 72%
Barometer: 1015.9 hPa
Clouds: Overcast
Visibility: 16 km
Cloud details: Overcast 488 m
2018/09/18 17:53 KWVI 181753Z AUTO VRB03KT 10SM OVC016 16/11 A3000 RMK AO2 SLP158 T01610106 10161 20100 50000
KHAF - Half Moon Bay, California, USA
Distance from station: WNW 50km
Updated: 18/09/2018 11:15
Mist, Mostly cloudy
Mist, Mostly cloudy
 Wind from SW
Wind: SW 9 km/h
Temperature: 13°C
Dew Point: 11°C
Humidity: 88%
Barometer: 1016.3 hPa
Summary: Mist
Clouds: Mostly cloudy
Visibility: 8 km
Cloud details: Partly cloudy 274 m
Mostly cloudy 396 m
2018/09/18 18:15 KHAF 181815Z AUTO 23005KT 5SM BR SCT009 BKN013 13/11 A3001 RMK AO2
 
KHWD - Hayward, California, USA
Distance from station: N 44km
Updated: 18/09/2018 10:54
Few Clouds
Few Clouds
 Wind from W
Wind: W 11 km/h
Temperature: 18°C
Dew Point: 11°C
Humidity: 64%
Barometer: 1015.2 hPa
Clouds: Few Clouds
Visibility: 16 km
Cloud details: Few Clouds 579 m
2018/09/18 17:54 KHWD 181754Z 26006KT 10SM FEW019 18/11 A2998 RMK AO2 SLP162 T01780106 10178 20144 50001
KLVK - Livermore, California, USA
Distance from station: NNE 51km
Updated: 18/09/2018 10:53
Clear
Clear
 Wind from SW
Wind: SW 9 km/h
Temperature: 18°C
Dew Point: 10°C
Humidity: 60%
Barometer: 1014.6 hPa
Clouds: Clear
Visibility: 16 km
2018/09/18 17:53 KLVK 181753Z 22005KT 10SM CLR 18/10 A2996 RMK AO2 SLP143 T01830100 10183 20094 58003 $